createdAt,value
2019-04-04T00:02:04.519Z,93.80
2019-04-04T00:04:33.404Z,93.70
2019-04-04T00:07:02.289Z,93.40
2019-04-04T00:09:33.104Z,93.90
2019-04-04T00:12:01.764Z,93.90
2019-04-04T00:14:34.641Z,93.50
2019-04-04T00:17:03.555Z,93.40
2019-04-04T00:19:32.589Z,93.20
2019-04-04T00:22:02.939Z,93.00
2019-04-04T00:24:32.055Z,93.00
2019-04-04T00:27:01.103Z,92.80
2019-04-04T00:29:29.996Z,92.80
2019-04-04T00:31:58.888Z,92.10
2019-04-04T00:34:28.594Z,91.90
2019-04-04T00:36:57.689Z,91.90
2019-04-04T00:39:26.555Z,91.70
2019-04-04T00:41:55.455Z,91.60
2019-04-04T00:44:24.294Z,91.50
2019-04-04T00:46:53.209Z,91.80
2019-04-04T00:49:22.079Z,91.90
2019-04-04T00:51:50.955Z,92.10
2019-04-04T00:54:19.912Z,92.20
2019-04-04T00:56:48.829Z,92.60
2019-04-04T00:59:18.223Z,92.40
2019-04-04T01:01:47.139Z,92.70
2019-04-04T01:04:16.074Z,93.00
2019-04-04T01:06:44.900Z,93.00
2019-04-04T01:09:13.892Z,93.50
2019-04-04T01:11:42.857Z,93.70
2019-04-04T01:14:11.763Z,93.90
2019-04-04T01:16:40.636Z,94.30
2019-04-04T01:19:10.001Z,94.60
2019-04-04T01:21:40.129Z,94.90
2019-04-04T01:24:09.035Z,95.10
2019-04-04T01:26:37.964Z,95.00
2019-04-04T01:29:10.195Z,95.10
2019-04-04T01:31:37.463Z,95.60
2019-04-04T01:34:06.305Z,95.40
2019-04-04T01:36:35.183Z,95.00
2019-04-04T01:39:05.982Z,94.80
2019-04-04T01:41:36.250Z,94.80
2019-04-04T01:44:05.643Z,94.90
2019-04-04T01:46:36.658Z,94.70
2019-04-04T01:49:05.505Z,94.80
2019-04-04T01:51:34.392Z,95.10
2019-04-04T01:54:03.334Z,95.30
2019-04-04T01:56:32.291Z,94.80
2019-04-04T01:59:01.175Z,94.70
2019-04-04T02:01:30.049Z,94.50
2019-04-04T02:03:58.920Z,94.30
2019-04-04T02:06:28.694Z,94.50
2019-04-04T02:08:58.140Z,94.00
2019-04-04T02:11:26.983Z,94.00
2019-04-04T02:13:55.856Z,93.90
2019-04-04T02:16:24.744Z,93.90
2019-04-04T02:18:54.339Z,94.00
2019-04-04T02:21:23.269Z,94.00
2019-04-04T02:23:52.172Z,94.10
2019-04-04T02:26:21.172Z,94.20
2019-04-04T02:28:50.084Z,93.90
2019-04-04T02:31:21.007Z,93.60
2019-04-04T02:33:49.975Z,93.40
2019-04-04T02:36:18.888Z,93.60
2019-04-04T02:39:02.609Z,93.60
2019-04-04T02:41:31.509Z,93.70
2019-04-04T02:44:00.759Z,94.00
2019-04-04T02:46:30.004Z,94.30
2019-04-04T02:48:58.896Z,94.00
2019-04-04T02:51:27.792Z,94.20
2019-04-04T02:53:56.716Z,94.10
2019-04-04T02:56:25.557Z,93.90
2019-04-04T02:58:54.449Z,93.20
2019-04-04T03:01:23.307Z,92.90
2019-04-04T03:03:52.206Z,92.90
2019-04-04T03:06:23.846Z,92.80
2019-04-04T03:08:51.673Z,92.60
2019-04-04T03:11:21.989Z,92.50
2019-04-04T03:13:51.424Z,92.40
2019-04-04T03:16:21.491Z,92.40
2019-04-04T03:18:55.654Z,92.30
2019-04-04T03:21:24.511Z,92.90
2019-04-04T03:23:53.414Z,92.80
2019-04-04T03:26:22.308Z,92.40
2019-04-04T03:28:51.159Z,92.50
2019-04-04T03:31:20.168Z,92.50
2019-04-04T03:33:49.039Z,92.80
2019-04-04T03:36:17.927Z,93.10
2019-04-04T03:38:47.396Z,93.30
2019-04-04T03:41:16.583Z,93.30
2019-04-04T03:43:48.089Z,93.30
2019-04-04T03:46:15.941Z,93.20
2019-04-04T03:48:44.899Z,93.20
2019-04-04T03:51:13.828Z,93.20
2019-04-04T03:53:46.374Z,92.80
2019-04-04T03:56:14.793Z,92.70
2019-04-04T03:58:43.736Z,92.70
2019-04-04T04:01:13.390Z,92.70
2019-04-04T04:03:42.369Z,92.70
2019-04-04T04:06:11.314Z,93.00
2019-04-04T04:08:40.223Z,92.70
2019-04-04T04:11:09.130Z,93.10
2019-04-04T04:13:38.083Z,93.00
2019-04-04T04:16:06.927Z,93.20
2019-04-04T04:18:35.757Z,93.00
2019-04-04T04:21:09.815Z,93.00
2019-04-04T04:23:35.218Z,92.70
2019-04-04T04:26:08.065Z,92.70
2019-04-04T04:28:34.564Z,92.70
2019-04-04T04:31:03.463Z,92.70
2019-04-04T04:33:32.390Z,92.80
2019-04-04T04:36:01.327Z,93.10
2019-04-04T04:38:30.223Z,93.50
2019-04-04T04:40:59.115Z,93.80
2019-04-04T04:43:32.399Z,94.30
2019-04-04T04:45:58.507Z,94.60
2019-04-04T04:48:30.723Z,95.00
2019-04-04T04:50:57.940Z,95.30
2019-04-04T04:53:26.960Z,95.40
2019-04-04T04:55:59.591Z,95.60
2019-04-04T04:58:26.460Z,95.60
2019-04-04T05:00:55.306Z,95.70
2019-04-04T05:03:24.831Z,95.40
2019-04-04T05:05:53.916Z,95.20
2019-04-04T05:08:22.779Z,95.20
2019-04-04T05:10:51.652Z,95.50
2019-04-04T05:13:20.551Z,95.40
2019-04-04T05:15:49.459Z,95.50
2019-04-04T05:18:18.373Z,95.20
2019-04-04T05:20:47.255Z,95.20
2019-04-04T05:23:16.312Z,95.40
2019-04-04T05:25:53.797Z,94.90
2019-04-04T05:28:16.009Z,95.10
2019-04-04T05:30:45.118Z,94.50
2019-04-04T05:33:15.461Z,94.60
2019-04-04T05:35:44.313Z,94.80
2019-04-04T05:38:13.184Z,94.30
2019-04-04T05:40:42.120Z,94.50
2019-04-04T05:43:10.985Z,94.60
2019-04-04T05:45:39.939Z,94.10
2019-04-04T05:48:08.751Z,94.20
2019-04-04T05:50:37.679Z,94.20
2019-04-04T05:53:06.669Z,94.00
2019-04-04T05:55:35.539Z,93.70
2019-04-04T05:58:04.455Z,93.40
2019-04-04T06:00:33.353Z,93.60
2019-04-04T06:03:02.292Z,93.40
2019-04-04T06:05:31.876Z,93.10
2019-04-04T06:08:01.075Z,92.80
2019-04-04T06:10:30.100Z,92.80
2019-04-04T06:12:58.917Z,92.70
2019-04-04T06:15:27.859Z,92.30
2019-04-04T06:17:56.760Z,92.50
2019-04-04T06:20:25.703Z,92.70
2019-04-04T06:22:54.552Z,92.50
2019-04-04T06:25:23.453Z,92.30
2019-04-04T06:27:52.380Z,91.80
2019-04-04T06:30:21.298Z,91.80
2019-04-04T06:32:50.195Z,91.60
2019-04-04T06:35:19.159Z,91.50
2019-04-04T06:37:51.019Z,91.00
2019-04-04T06:40:18.807Z,90.80
2019-04-04T06:42:47.668Z,91.20
2019-04-04T06:45:16.827Z,90.70
2019-04-04T06:47:45.809Z,90.90
2019-04-04T06:50:14.879Z,90.70
2019-04-04T06:52:43.807Z,90.10
2019-04-04T06:55:12.759Z,90.40
2019-04-04T06:57:41.639Z,90.00
2019-04-04T07:00:11.042Z,89.90
2019-04-04T07:02:39.884Z,90.00
2019-04-04T07:05:10.667Z,88.50
2019-04-04T07:07:42.960Z,88.00
2019-04-04T07:10:12.600Z,86.60
2019-04-04T07:12:41.677Z,86.50
2019-04-04T07:15:12.508Z,84.40
2019-04-04T07:17:41.460Z,83.60
2019-04-04T07:20:10.446Z,82.70
2019-04-04T07:22:39.341Z,83.10
2019-04-04T07:25:08.626Z,79.40
2019-04-04T07:27:37.544Z,77.70
2019-04-04T07:30:08.514Z,75.30
2019-04-04T07:32:40.854Z,76.40
2019-04-04T07:35:08.130Z,76.10
2019-04-04T07:37:37.031Z,76.30
2019-04-04T07:40:07.776Z,76.40
2019-04-04T07:42:36.660Z,75.60
2019-04-04T07:45:08.556Z,76.30
2019-04-04T07:47:37.446Z,75.50
2019-04-04T07:50:06.467Z,75.10
2019-04-04T07:52:35.415Z,75.50
2019-04-04T07:55:05.138Z,75.70
2019-04-04T07:57:33.988Z,75.90
2019-04-04T08:00:02.884Z,76.80
2019-04-04T08:02:31.775Z,77.40
2019-04-04T08:05:00.755Z,77.30
2019-04-04T08:07:29.563Z,76.90
2019-04-04T08:09:58.468Z,75.90
2019-04-04T08:12:27.433Z,75.30
2019-04-04T08:14:56.334Z,72.90
2019-04-04T08:17:25.204Z,69.60
2019-04-04T08:19:59.526Z,66.80
2019-04-04T08:22:24.680Z,66.00
2019-04-04T08:24:53.600Z,64.50
2019-04-04T08:27:22.499Z,67.30
2019-04-04T08:29:51.386Z,61.50
2019-04-04T08:32:20.344Z,58.70
2019-04-04T08:34:49.193Z,59.20
2019-04-04T08:37:18.135Z,60.00
2019-04-04T08:39:46.977Z,56.60
2019-04-04T08:42:15.932Z,56.20
2019-04-04T08:44:44.812Z,56.90
2019-04-04T08:47:13.762Z,55.80
2019-04-04T08:49:42.625Z,55.70
2019-04-04T08:52:16.963Z,54.40
2019-04-04T08:54:42.051Z,54.30
2019-04-04T08:57:10.989Z,55.30
2019-04-04T08:59:39.940Z,54.70
2019-04-04T09:02:08.947Z,53.20
2019-04-04T09:04:38.120Z,52.50
2019-04-04T09:07:06.968Z,53.60
2019-04-04T09:09:35.960Z,54.20
2019-04-04T09:12:05.088Z,53.00
2019-04-04T09:14:33.970Z,53.00
2019-04-04T09:17:03.002Z,53.30
2019-04-04T09:19:31.919Z,52.10
2019-04-04T09:22:00.865Z,53.10
2019-04-04T09:24:29.764Z,51.80
2019-04-04T09:26:58.782Z,52.60
2019-04-04T09:29:27.740Z,52.20
2019-04-04T09:31:56.608Z,51.10
2019-04-04T09:34:25.508Z,51.10
2019-04-04T09:36:54.931Z,51.30
2019-04-04T09:39:23.913Z,51.60
2019-04-04T09:41:52.824Z,51.40
2019-04-04T09:44:21.669Z,52.30
2019-04-04T09:46:50.619Z,50.10
2019-04-04T09:49:19.510Z,51.10
2019-04-04T09:51:48.379Z,51.20
2019-04-04T09:54:19.348Z,51.20
2019-04-04T09:56:47.775Z,51.30
2019-04-04T09:59:16.706Z,51.80
2019-04-04T10:01:45.584Z,51.60
2019-04-04T10:04:14.496Z,52.60
2019-04-04T10:06:43.640Z,53.60
2019-04-04T10:09:15.794Z,53.90
2019-04-04T10:11:43.521Z,54.10
2019-04-04T10:14:12.406Z,53.80
2019-04-04T10:16:41.368Z,55.90
2019-04-04T10:19:10.197Z,55.10
2019-04-04T10:21:39.127Z,52.30
2019-04-04T10:24:08.055Z,53.40
2019-04-04T10:26:36.975Z,54.10
2019-04-04T10:29:06.049Z,52.70
2019-04-04T10:31:34.921Z,52.70
2019-04-04T10:34:03.847Z,53.60
2019-04-04T10:36:32.759Z,51.30
2019-04-04T10:39:01.660Z,52.60
2019-04-04T10:41:30.543Z,53.00
2019-04-04T10:43:59.450Z,53.10
2019-04-04T10:46:28.387Z,52.60
2019-04-04T10:48:57.264Z,51.60
2019-04-04T10:51:26.239Z,51.70
2019-04-04T10:53:55.168Z,51.60
2019-04-04T10:56:24.088Z,52.10
2019-04-04T10:58:52.940Z,50.90
2019-04-04T11:01:21.834Z,52.10
2019-04-04T11:03:50.719Z,51.80
2019-04-04T11:06:19.623Z,51.10
2019-04-04T11:08:48.527Z,52.40
2019-04-04T11:11:17.455Z,50.00
2019-04-04T11:13:46.399Z,49.30
2019-04-04T11:16:15.311Z,50.20
2019-04-04T11:18:44.176Z,49.70
2019-04-04T11:21:13.142Z,49.90
2019-04-04T11:23:42.058Z,50.20
2019-04-04T11:26:10.999Z,50.30
2019-04-04T11:28:39.892Z,50.20
2019-04-04T11:31:08.745Z,50.70
2019-04-04T11:33:37.699Z,50.90
2019-04-04T11:36:06.575Z,50.90
2019-04-04T11:38:35.447Z,52.00
2019-04-04T11:41:04.507Z,52.10
2019-04-04T11:43:33.423Z,52.50
2019-04-04T11:46:02.364Z,52.00
2019-04-04T11:48:31.279Z,52.80
2019-04-04T11:51:00.175Z,51.30
2019-04-04T11:53:29.144Z,51.60
2019-04-04T11:55:58.074Z,52.00
2019-04-04T11:58:27.047Z,52.10
2019-04-04T12:01:00.416Z,52.40
2019-04-04T12:03:29.326Z,52.50
2019-04-04T12:05:58.312Z,53.80
2019-04-04T12:08:27.247Z,52.60
2019-04-04T12:10:56.090Z,51.80
2019-04-04T12:13:25.012Z,52.40
2019-04-04T12:15:53.919Z,52.50
2019-04-04T12:18:22.831Z,52.80
2019-04-04T12:20:51.675Z,52.00
2019-04-04T12:23:20.662Z,50.70
2019-04-04T12:25:49.600Z,50.30
2019-04-04T12:28:18.461Z,50.10
2019-04-04T12:30:47.425Z,50.30
2019-04-04T12:33:16.263Z,50.60
2019-04-04T12:35:45.269Z,50.50
2019-04-04T12:38:14.188Z,49.80
2019-04-04T12:40:43.021Z,49.40
2019-04-04T12:43:12.043Z,49.70
2019-04-04T12:45:41.021Z,49.30
2019-04-04T12:48:09.956Z,49.60
2019-04-04T12:50:38.791Z,49.10
2019-04-04T12:53:07.668Z,49.60
2019-04-04T12:55:36.627Z,49.20
2019-04-04T12:58:05.559Z,49.90
2019-04-04T13:00:34.546Z,49.20
2019-04-04T13:03:03.395Z,49.60
2019-04-04T13:05:32.377Z,50.90
2019-04-04T13:08:01.310Z,51.10
2019-04-04T13:10:33.325Z,50.10
2019-04-04T13:13:00.766Z,50.60
2019-04-04T13:15:29.699Z,50.50
2019-04-04T13:17:58.591Z,51.80
2019-04-04T13:20:27.501Z,51.70
2019-04-04T13:22:56.421Z,51.90
2019-04-04T13:25:25.414Z,52.60
2019-04-04T13:27:54.399Z,52.40
2019-04-04T13:30:23.331Z,52.70
2019-04-04T13:32:52.291Z,51.90
2019-04-04T13:35:21.145Z,52.00
2019-04-04T13:37:50.059Z,51.70
2019-04-04T13:40:19.019Z,51.30
2019-04-04T13:42:47.930Z,51.40
2019-04-04T13:45:16.883Z,51.50
2019-04-04T13:47:45.815Z,51.40
2019-04-04T13:50:14.980Z,49.90
2019-04-04T13:52:43.873Z,50.30
2019-04-04T13:55:12.760Z,47.50
2019-04-04T13:57:41.674Z,47.30
2019-04-04T14:00:11.397Z,47.30
2019-04-04T14:02:40.319Z,47.60
2019-04-04T14:05:12.690Z,50.40
2019-04-04T14:07:43.303Z,48.50
2019-04-04T14:10:12.150Z,49.00
2019-04-04T14:12:41.032Z,48.50
2019-04-04T14:15:11.000Z,47.10
2019-04-04T14:17:39.904Z,47.00
2019-04-04T14:20:10.398Z,48.00
2019-04-04T14:22:39.371Z,50.10
2019-04-04T14:25:09.391Z,49.70
2019-04-04T14:27:38.302Z,50.30
2019-04-04T14:30:09.309Z,50.70
2019-04-04T14:32:38.201Z,51.10
2019-04-04T14:35:09.016Z,51.10
2019-04-04T14:37:37.962Z,51.60
2019-04-04T14:40:07.901Z,51.80
2019-04-04T14:42:36.815Z,51.80
2019-04-04T14:45:08.609Z,52.00
2019-04-04T14:47:37.575Z,52.40
2019-04-04T14:50:07.819Z,52.70
2019-04-04T14:52:39.165Z,53.00
2019-04-04T14:55:07.846Z,54.40
2019-04-04T14:57:36.763Z,54.30
2019-04-04T15:00:10.821Z,55.40
2019-04-04T15:02:39.708Z,55.80
2019-04-04T15:05:08.593Z,55.50
2019-04-04T15:07:37.682Z,54.80
2019-04-04T15:10:06.943Z,54.40
2019-04-04T15:12:36.144Z,53.90
2019-04-04T15:15:06.597Z,53.90
2019-04-04T15:17:35.444Z,52.60
2019-04-04T15:20:06.249Z,52.40
2019-04-04T15:22:35.121Z,53.30
2019-04-04T15:25:04.151Z,52.80
2019-04-04T15:27:32.958Z,52.90
2019-04-04T15:30:01.851Z,53.60
2019-04-04T15:32:30.755Z,54.10
2019-04-04T15:34:59.629Z,54.00
2019-04-04T15:37:28.508Z,54.70
2019-04-04T15:39:57.503Z,55.00
2019-04-04T15:42:26.604Z,55.00
2019-04-04T15:44:55.651Z,55.40
2019-04-04T15:47:24.856Z,55.60
2019-04-04T15:49:53.715Z,55.20
2019-04-04T15:52:22.637Z,55.40
2019-04-04T15:54:51.505Z,56.10
2019-04-04T15:57:20.406Z,56.10
2019-04-04T15:59:49.328Z,56.20
2019-04-04T16:02:18.327Z,56.10
2019-04-04T16:04:47.212Z,55.30
2019-04-04T16:07:16.117Z,56.20
2019-04-04T16:09:44.996Z,56.70
2019-04-04T16:12:14.124Z,55.70
2019-04-04T16:14:43.143Z,55.40
2019-04-04T16:17:12.142Z,55.80
2019-04-04T16:19:41.148Z,55.10
2019-04-04T16:22:10.140Z,54.80
2019-04-04T16:24:39.297Z,55.00
2019-04-04T16:27:08.287Z,55.00
2019-04-04T16:29:43.861Z,54.30
2019-04-04T16:32:10.969Z,55.10
2019-04-04T16:34:39.901Z,54.50
2019-04-04T16:37:08.861Z,54.20
2019-04-04T16:39:37.758Z,54.10
2019-04-04T16:42:06.783Z,54.20
2019-04-04T16:44:35.668Z,54.50
2019-04-04T16:47:04.790Z,54.80
2019-04-04T16:49:33.827Z,55.20
2019-04-04T16:52:02.730Z,55.80
2019-04-04T16:54:31.761Z,55.80
2019-04-04T16:57:00.731Z,56.40
2019-04-04T16:59:29.603Z,56.70
2019-04-04T17:01:58.490Z,57.40
2019-04-04T17:04:27.415Z,57.90
2019-04-04T17:06:56.481Z,58.30
2019-04-04T17:09:25.315Z,58.70
2019-04-04T17:11:54.279Z,59.30
2019-04-04T17:14:23.375Z,60.00
2019-04-04T17:16:52.245Z,61.50
2019-04-04T17:19:21.253Z,62.40
2019-04-04T17:21:50.336Z,63.90
2019-04-04T17:24:19.282Z,65.10
2019-04-04T17:26:48.168Z,66.70
2019-04-04T17:29:17.050Z,69.50
2019-04-04T17:31:46.142Z,70.10
2019-04-04T17:34:15.770Z,71.00
2019-04-04T17:36:45.497Z,73.40
2019-04-04T17:39:14.659Z,73.10
2019-04-04T17:41:43.629Z,73.90
2019-04-04T17:44:12.627Z,74.50
2019-04-04T17:46:41.603Z,76.30
2019-04-04T17:49:10.503Z,77.20
2019-04-04T17:51:39.863Z,77.60
2019-04-04T17:54:08.798Z,77.40
2019-04-04T17:56:37.861Z,74.30
2019-04-04T17:59:07.023Z,73.90
2019-04-04T18:01:35.896Z,71.70
2019-04-04T18:04:04.947Z,73.50
2019-04-04T18:06:34.616Z,73.90
2019-04-04T18:09:04.188Z,74.70
2019-04-04T18:11:33.280Z,75.50
2019-04-04T18:14:02.236Z,75.10
2019-04-04T18:16:32.632Z,74.10
2019-04-04T18:19:01.591Z,74.60
2019-04-04T18:21:30.630Z,74.70
2019-04-04T18:23:59.475Z,74.80
2019-04-04T18:26:28.617Z,74.90
2019-04-04T18:28:57.560Z,75.10
2019-04-04T18:31:26.502Z,74.60
2019-04-04T18:33:55.507Z,75.80
2019-04-04T18:36:24.551Z,74.80
2019-04-04T18:38:53.567Z,75.00
2019-04-04T18:41:22.683Z,74.40
2019-04-04T18:43:51.588Z,75.10
2019-04-04T18:46:20.623Z,75.40
2019-04-04T18:48:51.927Z,75.60
2019-04-04T18:51:21.048Z,76.00
2019-04-04T18:53:50.051Z,75.50
2019-04-04T18:56:19.041Z,75.90
2019-04-04T18:58:47.902Z,76.10
2019-04-04T19:01:17.043Z,77.10
2019-04-04T19:03:46.212Z,77.70
2019-04-04T19:06:15.363Z,77.50
2019-04-04T19:08:44.404Z,78.10
2019-04-04T19:11:13.459Z,79.10
2019-04-04T19:13:44.586Z,79.50
2019-04-04T19:16:13.328Z,80.80
2019-04-04T19:18:42.387Z,81.40
2019-04-04T19:21:11.520Z,82.10
2019-04-04T19:23:49.211Z,82.40
2019-04-04T19:26:11.451Z,82.30
2019-04-04T19:28:40.494Z,82.70
2019-04-04T19:31:10.198Z,83.40
2019-04-04T19:33:39.082Z,83.40
2019-04-04T19:36:08.079Z,83.90
2019-04-04T19:38:36.988Z,84.20
2019-04-04T19:41:06.761Z,84.90
2019-04-04T19:43:35.748Z,85.20
2019-04-04T19:46:04.897Z,85.40
2019-04-04T19:48:33.802Z,86.00
2019-04-04T19:51:02.756Z,86.50
2019-04-04T19:53:31.667Z,87.30
2019-04-04T19:56:00.652Z,87.80
2019-04-04T19:58:29.659Z,88.70
2019-04-04T20:00:58.778Z,90.20
2019-04-04T20:03:27.900Z,90.50
2019-04-04T20:05:57.015Z,90.90
2019-04-04T20:08:26.000Z,91.00
2019-04-04T20:10:54.915Z,91.50
2019-04-04T20:13:30.734Z,91.80
2019-04-04T20:15:54.519Z,92.10
2019-04-04T20:18:23.519Z,92.70
2019-04-04T20:20:52.566Z,93.10
2019-04-04T20:23:21.503Z,93.50
2019-04-04T20:25:50.545Z,93.60
2019-04-04T20:28:19.735Z,93.90
2019-04-04T20:30:48.607Z,94.30
2019-04-04T20:33:17.625Z,94.60
2019-04-04T20:35:46.903Z,95.00
2019-04-04T20:38:16.143Z,95.30
2019-04-04T20:40:45.021Z,95.80
2019-04-04T20:43:14.081Z,95.80
2019-04-04T20:45:42.959Z,96.10
2019-04-04T20:48:11.919Z,96.70
2019-04-04T20:50:40.910Z,96.80
2019-04-04T20:53:09.880Z,97.60
2019-04-04T20:55:38.823Z,97.80
2019-04-04T20:58:07.716Z,97.90
2019-04-04T21:00:36.599Z,98.20
2019-04-04T21:03:05.619Z,98.50
2019-04-04T21:05:34.599Z,99.00
2019-04-04T21:08:03.447Z,99.50
2019-04-04T21:10:32.402Z,99.70
2019-04-04T21:13:01.213Z,99.90
2019-04-04T21:15:30.288Z,99.90
2019-04-04T21:17:59.171Z,99.90
2019-04-04T21:20:27.987Z,99.90
2019-04-04T21:22:56.903Z,99.90
2019-04-04T21:25:25.748Z,99.90
2019-04-04T21:27:54.663Z,99.90
2019-04-04T21:30:23.540Z,99.90
2019-04-04T21:32:52.424Z,99.90
2019-04-04T21:35:21.353Z,99.90
2019-04-04T21:37:50.221Z,99.90
2019-04-04T21:40:19.156Z,99.90
2019-04-04T21:42:48.060Z,99.90
2019-04-04T21:45:16.908Z,99.90
2019-04-04T21:47:45.868Z,99.90
2019-04-04T21:50:14.930Z,99.90
2019-04-04T21:52:43.836Z,99.90
2019-04-04T21:55:12.874Z,99.90
2019-04-04T21:57:41.847Z,99.90
2019-04-04T22:00:12.475Z,99.90
2019-04-04T22:02:41.444Z,99.90
2019-04-04T22:05:10.727Z,99.90
2019-04-04T22:07:39.564Z,99.90
2019-04-04T22:10:09.719Z,99.90
2019-04-04T22:12:38.579Z,99.90
2019-04-04T22:15:08.493Z,99.90
2019-04-04T22:17:37.419Z,99.90
2019-04-04T22:20:07.739Z,99.90
2019-04-04T22:22:36.649Z,99.90
2019-04-04T22:25:08.748Z,99.90
2019-04-04T22:27:37.687Z,99.90
2019-04-04T22:30:07.800Z,99.90
2019-04-04T22:32:36.648Z,99.90
2019-04-04T22:35:08.726Z,99.90
2019-04-04T22:37:37.588Z,99.90
2019-04-04T22:40:07.976Z,99.90
2019-04-04T22:42:36.817Z,99.90
2019-04-04T22:45:07.436Z,99.90
2019-04-04T22:47:36.365Z,99.90
2019-04-04T22:50:06.961Z,99.90
2019-04-04T22:52:35.930Z,99.90
2019-04-04T22:55:05.029Z,99.90
2019-04-04T22:57:33.907Z,99.90
2019-04-04T23:00:02.794Z,99.90
2019-04-04T23:02:31.648Z,99.90
2019-04-04T23:05:00.564Z,99.90
2019-04-04T23:07:29.459Z,99.90
2019-04-04T23:09:58.624Z,99.90
2019-04-04T23:12:28.073Z,99.90
2019-04-04T23:14:57.020Z,99.90
2019-04-04T23:17:25.928Z,99.90
2019-04-04T23:19:54.800Z,99.90
2019-04-04T23:22:23.745Z,99.90
2019-04-04T23:24:52.576Z,99.90
2019-04-04T23:27:21.520Z,99.90
2019-04-04T23:29:50.501Z,99.90
2019-04-04T23:32:19.362Z,99.90
2019-04-04T23:34:48.263Z,99.90
2019-04-04T23:37:17.149Z,99.90
2019-04-04T23:39:46.079Z,99.90
2019-04-04T23:42:14.927Z,99.90
2019-04-04T23:44:43.797Z,99.90
2019-04-04T23:47:12.753Z,99.90
2019-04-04T23:49:41.687Z,99.90
2019-04-04T23:52:10.696Z,99.90
2019-04-04T23:54:39.580Z,99.90
2019-04-04T23:57:08.443Z,99.90
2019-04-04T23:59:37.371Z,99.90
